sensor_id;sensor_type;location;lat;lon;timestamp;temperature;humidity
13268;DHT22;6702;47.068;15.458;2023-04-24T00:00:03;13.00;99.90
13268;DHT22;6702;47.068;15.458;2023-04-24T00:03:08;13.00;99.90
13268;DHT22;6702;47.068;15.458;2023-04-24T00:06:11;12.90;99.90
13268;DHT22;6702;47.068;15.458;2023-04-24T00:09:14;13.00;99.90
13268;DHT22;6702;47.068;15.458;2023-04-24T00:12:20;12.90;99.90
13268;DHT22;6702;47.068;15.458;2023-04-24T00:15:23;12.80;99.90
13268;DHT22;6702;47.068;15.458;2023-04-24T00:18:26;12.80;99.90
13268;DHT22;6702;47.068;15.458;2023-04-24T00:21:29;12.70;99.90
13268;DHT22;6702;47.068;15.458;2023-04-24T00:24:34;12.80;99.90
13268;DHT22;6702;47.068;15.458;2023-04-24T00:27:38;12.70;99.90
13268;DHT22;6702;47.068;15.458;2023-04-24T00:30:42;12.60;99.90
13268;DHT22;6702;47.068;15.458;2023-04-24T00:33:45;12.70;99.90
13268;DHT22;6702;47.068;15.458;2023-04-24T00:36:48;12.70;99.90
13268;DHT22;6702;47.068;15.458;2023-04-24T00:39:53;12.60;99.90
13268;DHT22;6702;47.068;15.458;2023-04-24T00:42:58;12.60;99.90
13268;DHT22;6702;47.068;15.458;2023-04-24T00:46:01;12.60;99.90
13268;DHT22;6702;47.068;15.458;2023-04-24T00:49:05;12.60;99.90
13268;DHT22;6702;47.068;15.458;2023-04-24T00:52:08;12.50;99.90
13268;DHT22;6702;47.068;15.458;2023-04-24T00:55:12;12.50;99.90
13268;DHT22;6702;47.068;15.458;2023-04-24T00:58:17;12.50;99.90
13268;DHT22;6702;47.068;15.458;2023-04-24T01:01:21;12.40;99.90
13268;DHT22;6702;47.068;15.458;2023-04-24T01:04:24;12.40;99.90
13268;DHT22;6702;47.068;15.458;2023-04-24T01:07:29;12.40;99.90
13268;DHT22;6702;47.068;15.458;2023-04-24T01:10:33;12.40;99.90
13268;DHT22;6702;47.068;15.458;2023-04-24T01:13:40;12.40;99.90
13268;DHT22;6702;47.068;15.458;2023-04-24T01:16:43;12.40;99.90
13268;DHT22;6702;47.068;15.458;2023-04-24T01:19:46;12.40;99.90
13268;DHT22;6702;47.068;15.458;2023-04-24T01:22:51;12.40;99.90
13268;DHT22;6702;47.068;15.458;2023-04-24T01:25:54;12.40;99.90
13268;DHT22;6702;47.068;15.458;2023-04-24T01:28:58;12.40;99.90
13268;DHT22;6702;47.068;15.458;2023-04-24T01:32:02;12.40;99.90
13268;DHT22;6702;47.068;15.458;2023-04-24T01:35:07;12.30;99.90
13268;DHT22;6702;47.068;15.458;2023-04-24T01:38:11;12.30;99.90
13268;DHT22;6702;47.068;15.458;2023-04-24T01:41:14;12.20;99.90
13268;DHT22;6702;47.068;15.458;2023-04-24T01:44:18;12.20;99.90
13268;DHT22;6702;47.068;15.458;2023-04-24T01:47:21;12.20;99.90
13268;DHT22;6702;47.068;15.458;2023-04-24T01:50:25;12.20;99.90
13268;DHT22;6702;47.068;15.458;2023-04-24T01:53:29;12.10;99.90
13268;DHT22;6702;47.068;15.458;2023-04-24T01:56:33;12.10;99.90
13268;DHT22;6702;47.068;15.458;2023-04-24T01:59:37;12.00;99.90
13268;DHT22;6702;47.068;15.458;2023-04-24T02:02:41;12.10;99.90
13268;DHT22;6702;47.068;15.458;2023-04-24T02:05:48;12.10;99.90
13268;DHT22;6702;47.068;15.458;2023-04-24T02:08:52;12.10;99.90
13268;DHT22;6702;47.068;15.458;2023-04-24T02:11:55;12.10;99.90
13268;DHT22;6702;47.068;15.458;2023-04-24T02:14:59;12.10;99.90
13268;DHT22;6702;47.068;15.458;2023-04-24T02:18:02;12.10;99.90
13268;DHT22;6702;47.068;15.458;2023-04-24T02:21:05;12.20;99.90
13268;DHT22;6702;47.068;15.458;2023-04-24T02:24:10;12.20;99.90
13268;DHT22;6702;47.068;15.458;2023-04-24T02:27:13;12.30;99.90
13268;DHT22;6702;47.068;15.458;2023-04-24T02:30:16;12.30;99.90
13268;DHT22;6702;47.068;15.458;2023-04-24T02:33:20;12.30;99.90
13268;DHT22;6702;47.068;15.458;2023-04-24T02:36:23;12.30;99.90
13268;DHT22;6702;47.068;15.458;2023-04-24T02:39:27;12.30;99.90
13268;DHT22;6702;47.068;15.458;2023-04-24T02:42:30;12.30;99.90
13268;DHT22;6702;47.068;15.458;2023-04-24T02:45:33;12.30;99.90
13268;DHT22;6702;47.068;15.458;2023-04-24T02:48:37;12.20;99.90
13268;DHT22;6702;47.068;15.458;2023-04-24T02:51:40;12.20;99.90
13268;DHT22;6702;47.068;15.458;2023-04-24T02:54:44;12.20;99.90
13268;DHT22;6702;47.068;15.458;2023-04-24T02:57:48;12.10;99.90
13268;DHT22;6702;47.068;15.458;2023-04-24T03:00:53;12.10;99.90
13268;DHT22;6702;47.068;15.458;2023-04-24T03:03:58;12.10;99.90
13268;DHT22;6702;47.068;15.458;2023-04-24T03:07:01;12.00;99.90
13268;DHT22;6702;47.068;15.458;2023-04-24T03:10:07;12.00;99.90
13268;DHT22;6702;47.068;15.458;2023-04-24T03:13:10;12.00;99.90
13268;DHT22;6702;47.068;15.458;2023-04-24T03:16:13;12.00;99.90
13268;DHT22;6702;47.068;15.458;2023-04-24T03:19:17;11.90;99.90
13268;DHT22;6702;47.068;15.458;2023-04-24T03:22:20;11.90;99.90
13268;DHT22;6702;47.068;15.458;2023-04-24T03:25:24;11.80;99.90
13268;DHT22;6702;47.068;15.458;2023-04-24T03:28:27;11.80;99.90
13268;DHT22;6702;47.068;15.458;2023-04-24T03:31:30;11.80;99.90
13268;DHT22;6702;47.068;15.458;2023-04-24T03:34:34;11.80;99.90
13268;DHT22;6702;47.068;15.458;2023-04-24T03:37:37;11.80;99.90
13268;DHT22;6702;47.068;15.458;2023-04-24T03:40:41;11.80;99.90
13268;DHT22;6702;47.068;15.458;2023-04-24T03:43:45;11.80;99.90
13268;DHT22;6702;47.068;15.458;2023-04-24T03:46:48;11.70;99.90
13268;DHT22;6702;47.068;15.458;2023-04-24T03:49:51;11.70;99.90
13268;DHT22;6702;47.068;15.458;2023-04-24T03:52:55;11.70;99.90
13268;DHT22;6702;47.068;15.458;2023-04-24T03:56:00;11.70;99.90
13268;DHT22;6702;47.068;15.458;2023-04-24T03:59:03;11.70;99.90
13268;DHT22;6702;47.068;15.458;2023-04-24T04:02:06;11.70;99.90
13268;DHT22;6702;47.068;15.458;2023-04-24T04:05:09;11.80;99.90
13268;DHT22;6702;47.068;15.458;2023-04-24T04:08:16;11.80;99.90
13268;DHT22;6702;47.068;15.458;2023-04-24T04:11:22;11.80;99.90
13268;DHT22;6702;47.068;15.458;2023-04-24T04:14:25;11.90;99.90
13268;DHT22;6702;47.068;15.458;2023-04-24T04:17:28;11.90;99.90
13268;DHT22;6702;47.068;15.458;2023-04-24T04:20:31;11.80;99.90
13268;DHT22;6702;47.068;15.458;2023-04-24T04:23:34;11.80;99.90
13268;DHT22;6702;47.068;15.458;2023-04-24T04:26:39;11.80;99.90
13268;DHT22;6702;47.068;15.458;2023-04-24T04:29:42;11.80;99.90
13268;DHT22;6702;47.068;15.458;2023-04-24T04:32:46;11.80;99.90
13268;DHT22;6702;47.068;15.458;2023-04-24T04:35:49;11.90;99.90
13268;DHT22;6702;47.068;15.458;2023-04-24T04:38:53;11.90;99.90
13268;DHT22;6702;47.068;15.458;2023-04-24T04:41:58;11.90;99.90
13268;DHT22;6702;47.068;15.458;2023-04-24T04:45:02;11.90;99.90
13268;DHT22;6702;47.068;15.458;2023-04-24T04:48:05;12.00;99.90
13268;DHT22;6702;47.068;15.458;2023-04-24T04:51:09;12.10;99.90
13268;DHT22;6702;47.068;15.458;2023-04-24T04:54:12;12.10;99.90
13268;DHT22;6702;47.068;15.458;2023-04-24T04:57:16;12.10;99.90
13268;DHT22;6702;47.068;15.458;2023-04-24T05:00:20;12.00;99.90
13268;DHT22;6702;47.068;15.458;2023-04-24T05:03:23;12.10;99.90
13268;DHT22;6702;47.068;15.458;2023-04-24T05:06:26;12.10;99.90
13268;DHT22;6702;47.068;15.458;2023-04-24T05:09:30;12.10;99.90
13268;DHT22;6702;47.068;15.458;2023-04-24T05:12:34;12.20;99.90
13268;DHT22;6702;47.068;15.458;2023-04-24T05:15:37;12.30;99.90
13268;DHT22;6702;47.068;15.458;2023-04-24T05:18:40;12.40;99.90
13268;DHT22;6702;47.068;15.458;2023-04-24T05:21:44;12.40;99.90
13268;DHT22;6702;47.068;15.458;2023-04-24T05:24:49;12.50;99.90
13268;DHT22;6702;47.068;15.458;2023-04-24T05:27:54;12.60;99.90
13268;DHT22;6702;47.068;15.458;2023-04-24T05:30:57;12.60;99.90
13268;DHT22;6702;47.068;15.458;2023-04-24T05:34:01;12.60;99.90
13268;DHT22;6702;47.068;15.458;2023-04-24T05:37:04;12.70;99.90
13268;DHT22;6702;47.068;15.458;2023-04-24T05:40:10;12.70;99.90
13268;DHT22;6702;47.068;15.458;2023-04-24T05:43:15;12.70;99.90
13268;DHT22;6702;47.068;15.458;2023-04-24T05:46:18;12.80;99.90
13268;DHT22;6702;47.068;15.458;2023-04-24T05:49:21;12.80;99.90
13268;DHT22;6702;47.068;15.458;2023-04-24T05:52:24;12.80;99.90
13268;DHT22;6702;47.068;15.458;2023-04-24T05:55:27;12.90;99.90
13268;DHT22;6702;47.068;15.458;2023-04-24T05:58:32;13.00;99.90
13268;DHT22;6702;47.068;15.458;2023-04-24T06:01:35;13.10;99.90
13268;DHT22;6702;47.068;15.458;2023-04-24T06:04:38;13.30;99.90
13268;DHT22;6702;47.068;15.458;2023-04-24T06:07:42;13.50;99.90
13268;DHT22;6702;47.068;15.458;2023-04-24T06:10:45;13.70;99.90
13268;DHT22;6702;47.068;15.458;2023-04-24T06:13:50;13.90;99.90
13268;DHT22;6702;47.068;15.458;2023-04-24T06:16:53;14.10;99.90
13268;DHT22;6702;47.068;15.458;2023-04-24T06:19:57;14.30;99.90
13268;DHT22;6702;47.068;15.458;2023-04-24T06:23:00;14.50;99.90
13268;DHT22;6702;47.068;15.458;2023-04-24T06:26:03;14.90;99.90
13268;DHT22;6702;47.068;15.458;2023-04-24T06:29:08;15.10;99.90
13268;DHT22;6702;47.068;15.458;2023-04-24T06:32:11;15.60;99.90
13268;DHT22;6702;47.068;15.458;2023-04-24T06:35:15;16.00;99.90
13268;DHT22;6702;47.068;15.458;2023-04-24T06:38:18;16.50;99.90
13268;DHT22;6702;47.068;15.458;2023-04-24T06:41:21;16.90;99.90
13268;DHT22;6702;47.068;15.458;2023-04-24T06:44:26;17.30;99.90
13268;DHT22;6702;47.068;15.458;2023-04-24T06:47:29;17.50;99.90
13268;DHT22;6702;47.068;15.458;2023-04-24T06:50:32;17.70;99.90
13268;DHT22;6702;47.068;15.458;2023-04-24T06:53:36;17.90;99.90
13268;DHT22;6702;47.068;15.458;2023-04-24T06:56:39;17.90;99.90
13268;DHT22;6702;47.068;15.458;2023-04-24T06:59:43;17.80;99.90
13268;DHT22;6702;47.068;15.458;2023-04-24T07:02:46;17.70;99.90
13268;DHT22;6702;47.068;15.458;2023-04-24T07:05:50;17.60;99.90
13268;DHT22;6702;47.068;15.458;2023-04-24T07:08:54;17.40;99.90
13268;DHT22;6702;47.068;15.458;2023-04-24T07:11:57;17.30;99.90
13268;DHT22;6702;47.068;15.458;2023-04-24T07:15:03;17.20;99.90
13268;DHT22;6702;47.068;15.458;2023-04-24T07:18:06;17.10;99.90
13268;DHT22;6702;47.068;15.458;2023-04-24T07:21:10;16.80;99.90
13268;DHT22;6702;47.068;15.458;2023-04-24T07:24:13;16.60;99.90
13268;DHT22;6702;47.068;15.458;2023-04-24T07:27:16;16.30;99.90
13268;DHT22;6702;47.068;15.458;2023-04-24T07:30:21;16.10;99.90
13268;DHT22;6702;47.068;15.458;2023-04-24T07:33:24;15.50;99.90
13268;DHT22;6702;47.068;15.458;2023-04-24T07:36:28;15.20;99.90
13268;DHT22;6702;47.068;15.458;2023-04-24T07:39:31;15.10;99.90
13268;DHT22;6702;47.068;15.458;2023-04-24T07:42:34;15.10;99.90
13268;DHT22;6702;47.068;15.458;2023-04-24T07:45:39;15.00;99.90
13268;DHT22;6702;47.068;15.458;2023-04-24T07:48:42;15.00;99.90
13268;DHT22;6702;47.068;15.458;2023-04-24T07:51:46;14.90;99.90
13268;DHT22;6702;47.068;15.458;2023-04-24T07:54:49;14.80;99.90
13268;DHT22;6702;47.068;15.458;2023-04-24T07:57:54;14.80;99.90
13268;DHT22;6702;47.068;15.458;2023-04-24T08:00:58;14.80;99.90
13268;DHT22;6702;47.068;15.458;2023-04-24T08:04:02;14.80;99.90
13268;DHT22;6702;47.068;15.458;2023-04-24T08:07:05;14.80;99.90
13268;DHT22;6702;47.068;15.458;2023-04-24T08:10:10;14.90;99.90
13268;DHT22;6702;47.068;15.458;2023-04-24T08:13:13;14.90;99.90
13268;DHT22;6702;47.068;15.458;2023-04-24T08:16:18;14.90;99.90
13268;DHT22;6702;47.068;15.458;2023-04-24T08:19:21;14.90;99.90
13268;DHT22;6702;47.068;15.458;2023-04-24T08:22:24;15.00;99.90
13268;DHT22;6702;47.068;15.458;2023-04-24T08:25:28;15.00;99.90
13268;DHT22;6702;47.068;15.458;2023-04-24T08:28:31;15.00;99.90
13268;DHT22;6702;47.068;15.458;2023-04-24T08:31:35;15.00;99.90
13268;DHT22;6702;47.068;15.458;2023-04-24T08:34:39;15.00;99.90
13268;DHT22;6702;47.068;15.458;2023-04-24T08:37:42;15.00;99.90
13268;DHT22;6702;47.068;15.458;2023-04-24T08:40:45;14.90;99.90
13268;DHT22;6702;47.068;15.458;2023-04-24T08:43:51;14.80;99.90
13268;DHT22;6702;47.068;15.458;2023-04-24T08:46:56;14.80;99.90
13268;DHT22;6702;47.068;15.458;2023-04-24T08:49:59;14.70;99.90
13268;DHT22;6702;47.068;15.458;2023-04-24T08:53:05;14.70;99.90
13268;DHT22;6702;47.068;15.458;2023-04-24T08:56:09;14.80;99.90
13268;DHT22;6702;47.068;15.458;2023-04-24T08:59:14;14.70;99.90
13268;DHT22;6702;47.068;15.458;2023-04-24T09:02:19;14.70;99.90
13268;DHT22;6702;47.068;15.458;2023-04-24T09:05:23;14.70;99.90
13268;DHT22;6702;47.068;15.458;2023-04-24T09:08:29;14.70;99.90
13268;DHT22;6702;47.068;15.458;2023-04-24T09:11:34;14.60;99.90
13268;DHT22;6702;47.068;15.458;2023-04-24T09:14:37;14.60;99.90
13268;DHT22;6702;47.068;15.458;2023-04-24T09:17:46;14.60;99.90
13268;DHT22;6702;47.068;15.458;2023-04-24T09:20:58;14.60;99.90
13268;DHT22;6702;47.068;15.458;2023-04-24T09:24:04;14.60;99.90
13268;DHT22;6702;47.068;15.458;2023-04-24T09:27:08;14.60;99.90
13268;DHT22;6702;47.068;15.458;2023-04-24T09:30:14;14.60;99.90
13268;DHT22;6702;47.068;15.458;2023-04-24T09:33:25;14.60;99.90
13268;DHT22;6702;47.068;15.458;2023-04-24T09:36:28;14.60;99.90
13268;DHT22;6702;47.068;15.458;2023-04-24T09:39:33;14.70;99.90
13268;DHT22;6702;47.068;15.458;2023-04-24T09:42:37;14.80;99.90
13268;DHT22;6702;47.068;15.458;2023-04-24T09:45:40;14.80;99.90
13268;DHT22;6702;47.068;15.458;2023-04-24T09:48:44;14.90;99.90
13268;DHT22;6702;47.068;15.458;2023-04-24T09:51:47;14.90;99.90
13268;DHT22;6702;47.068;15.458;2023-04-24T09:54:53;15.00;99.90
13268;DHT22;6702;47.068;15.458;2023-04-24T09:57:58;15.10;99.90
13268;DHT22;6702;47.068;15.458;2023-04-24T10:01:02;15.30;99.90
13268;DHT22;6702;47.068;15.458;2023-04-24T10:04:08;15.50;99.90
13268;DHT22;6702;47.068;15.458;2023-04-24T10:07:17;15.70;99.90
13268;DHT22;6702;47.068;15.458;2023-04-24T10:10:21;16.00;99.90
13268;DHT22;6702;47.068;15.458;2023-04-24T10:13:24;16.30;99.90
13268;DHT22;6702;47.068;15.458;2023-04-24T10:16:28;16.60;99.90
13268;DHT22;6702;47.068;15.458;2023-04-24T10:19:34;16.90;99.90
13268;DHT22;6702;47.068;15.458;2023-04-24T10:22:38;17.10;99.90
13268;DHT22;6702;47.068;15.458;2023-04-24T10:25:42;17.40;99.90
13268;DHT22;6702;47.068;15.458;2023-04-24T10:28:46;17.60;99.90
13268;DHT22;6702;47.068;15.458;2023-04-24T10:31:50;17.70;99.90
13268;DHT22;6702;47.068;15.458;2023-04-24T10:34:54;17.80;99.90
13268;DHT22;6702;47.068;15.458;2023-04-24T10:38:03;17.90;99.90
13268;DHT22;6702;47.068;15.458;2023-04-24T10:41:09;17.90;99.90
13268;DHT22;6702;47.068;15.458;2023-04-24T10:44:22;17.90;99.90
13268;DHT22;6702;47.068;15.458;2023-04-24T10:47:25;18.00;99.90
13268;DHT22;6702;47.068;15.458;2023-04-24T10:50:42;18.10;99.90
13268;DHT22;6702;47.068;15.458;2023-04-24T10:53:46;18.20;99.90
13268;DHT22;6702;47.068;15.458;2023-04-24T10:56:50;18.20;99.90
13268;DHT22;6702;47.068;15.458;2023-04-24T11:00:10;18.30;99.90
13268;DHT22;6702;47.068;15.458;2023-04-24T11:03:28;18.40;99.90
13268;DHT22;6702;47.068;15.458;2023-04-24T11:06:34;18.60;99.90
13268;DHT22;6702;47.068;15.458;2023-04-24T11:09:38;18.80;99.90
13268;DHT22;6702;47.068;15.458;2023-04-24T11:12:42;18.90;99.80
13268;DHT22;6702;47.068;15.458;2023-04-24T11:16:13;19.10;99.20
13268;DHT22;6702;47.068;15.458;2023-04-24T11:19:22;19.20;98.00
13268;DHT22;6702;47.068;15.458;2023-04-24T11:22:28;19.30;97.80
13268;DHT22;6702;47.068;15.458;2023-04-24T11:25:33;19.30;97.30
13268;DHT22;6702;47.068;15.458;2023-04-24T11:28:44;19.00;96.60
13268;DHT22;6702;47.068;15.458;2023-04-24T11:31:47;18.80;96.80
13268;DHT22;6702;47.068;15.458;2023-04-24T11:34:54;18.70;97.80
13268;DHT22;6702;47.068;15.458;2023-04-24T11:37:59;18.60;98.20
13268;DHT22;6702;47.068;15.458;2023-04-24T11:41:24;18.60;97.70
13268;DHT22;6702;47.068;15.458;2023-04-24T11:44:28;18.60;97.90
13268;DHT22;6702;47.068;15.458;2023-04-24T11:47:34;18.60;97.80
13268;DHT22;6702;47.068;15.458;2023-04-24T11:50:37;18.60;96.40
13268;DHT22;6702;47.068;15.458;2023-04-24T11:53:41;18.50;96.90
13268;DHT22;6702;47.068;15.458;2023-04-24T11:56:46;18.40;97.80
13268;DHT22;6702;47.068;15.458;2023-04-24T11:59:50;18.40;96.80
13268;DHT22;6702;47.068;15.458;2023-04-24T12:03:04;18.40;96.70
13268;DHT22;6702;47.068;15.458;2023-04-24T12:06:09;18.30;96.10
13268;DHT22;6702;47.068;15.458;2023-04-24T12:09:14;18.20;96.00
13268;DHT22;6702;47.068;15.458;2023-04-24T12:12:19;18.10;96.30
13268;DHT22;6702;47.068;15.458;2023-04-24T12:15:23;18.00;97.00
13268;DHT22;6702;47.068;15.458;2023-04-24T12:18:26;17.80;97.30
13268;DHT22;6702;47.068;15.458;2023-04-24T12:21:29;17.70;97.20
13268;DHT22;6702;47.068;15.458;2023-04-24T12:24:35;17.70;97.50
13268;DHT22;6702;47.068;15.458;2023-04-24T12:27:38;17.70;97.80
13268;DHT22;6702;47.068;15.458;2023-04-24T12:30:43;17.70;97.40
13268;DHT22;6702;47.068;15.458;2023-04-24T12:33:47;17.80;97.20
13268;DHT22;6702;47.068;15.458;2023-04-24T12:36:50;17.90;97.00
13268;DHT22;6702;47.068;15.458;2023-04-24T12:40:02;18.00;96.70
13268;DHT22;6702;47.068;15.458;2023-04-24T12:43:13;18.20;96.20
13268;DHT22;6702;47.068;15.458;2023-04-24T12:46:17;18.50;95.60
13268;DHT22;6702;47.068;15.458;2023-04-24T12:49:23;18.90;94.90
13268;DHT22;6702;47.068;15.458;2023-04-24T12:52:27;19.30;94.60
13268;DHT22;6702;47.068;15.458;2023-04-24T12:55:32;19.70;94.20
13268;DHT22;6702;47.068;15.458;2023-04-24T12:58:35;20.00;93.80
13268;DHT22;6702;47.068;15.458;2023-04-24T13:01:39;20.30;92.90
13268;DHT22;6702;47.068;15.458;2023-04-24T13:04:42;20.40;91.50
13268;DHT22;6702;47.068;15.458;2023-04-24T13:07:45;20.50;90.90
13268;DHT22;6702;47.068;15.458;2023-04-24T13:10:50;20.60;90.40
13268;DHT22;6702;47.068;15.458;2023-04-24T13:13:54;20.40;90.20
13268;DHT22;6702;47.068;15.458;2023-04-24T13:16:57;20.20;90.10
13268;DHT22;6702;47.068;15.458;2023-04-24T13:20:00;19.80;89.50
13268;DHT22;6702;47.068;15.458;2023-04-24T13:23:04;19.70;88.30
13268;DHT22;6702;47.068;15.458;2023-04-24T13:26:09;19.70;88.10
13268;DHT22;6702;47.068;15.458;2023-04-24T13:29:12;19.50;88.80
13268;DHT22;6702;47.068;15.458;2023-04-24T13:32:15;19.40;89.90
13268;DHT22;6702;47.068;15.458;2023-04-24T13:35:19;19.30;90.40
13268;DHT22;6702;47.068;15.458;2023-04-24T13:38:22;19.10;91.10
13268;DHT22;6702;47.068;15.458;2023-04-24T13:41:26;19.00;91.40
13268;DHT22;6702;47.068;15.458;2023-04-24T13:44:29;18.70;91.30
13268;DHT22;6702;47.068;15.458;2023-04-24T13:47:32;18.40;92.60
13268;DHT22;6702;47.068;15.458;2023-04-24T13:50:35;18.20;94.00
13268;DHT22;6702;47.068;15.458;2023-04-24T13:53:38;18.10;94.90
13268;DHT22;6702;47.068;15.458;2023-04-24T13:56:43;17.70;95.40
13268;DHT22;6702;47.068;15.458;2023-04-24T13:59:47;17.50;96.10
13268;DHT22;6702;47.068;15.458;2023-04-24T14:02:50;17.40;96.20
13268;DHT22;6702;47.068;15.458;2023-04-24T14:05:53;17.40;96.30
13268;DHT22;6702;47.068;15.458;2023-04-24T14:08:57;17.30;96.30
13268;DHT22;6702;47.068;15.458;2023-04-24T14:12:01;17.20;95.90
13268;DHT22;6702;47.068;15.458;2023-04-24T14:15:06;17.00;95.50
13268;DHT22;6702;47.068;15.458;2023-04-24T14:18:10;16.70;96.40
13268;DHT22;6702;47.068;15.458;2023-04-24T14:21:13;16.50;97.40
13268;DHT22;6702;47.068;15.458;2023-04-24T14:24:18;16.30;97.90
13268;DHT22;6702;47.068;15.458;2023-04-24T14:27:23;16.30;98.30
13268;DHT22;6702;47.068;15.458;2023-04-24T14:30:27;16.50;98.50
13268;DHT22;6702;47.068;15.458;2023-04-24T14:33:30;16.60;98.70
13268;DHT22;6702;47.068;15.458;2023-04-24T14:36:33;16.60;98.60
13268;DHT22;6702;47.068;15.458;2023-04-24T14:39:36;16.70;98.50
13268;DHT22;6702;47.068;15.458;2023-04-24T14:42:41;16.60;98.30
13268;DHT22;6702;47.068;15.458;2023-04-24T14:45:44;16.40;98.60
13268;DHT22;6702;47.068;15.458;2023-04-24T14:48:47;16.40;99.50
13268;DHT22;6702;47.068;15.458;2023-04-24T14:51:52;16.40;99.70
13268;DHT22;6702;47.068;15.458;2023-04-24T14:54:56;16.40;99.80
13268;DHT22;6702;47.068;15.458;2023-04-24T14:58:00;16.20;99.90
13268;DHT22;6702;47.068;15.458;2023-04-24T15:01:04;16.10;99.90
13268;DHT22;6702;47.068;15.458;2023-04-24T15:04:07;16.00;99.90
13268;DHT22;6702;47.068;15.458;2023-04-24T15:07:10;16.00;99.90
13268;DHT22;6702;47.068;15.458;2023-04-24T15:10:14;16.00;99.90
13268;DHT22;6702;47.068;15.458;2023-04-24T15:13:20;16.00;99.90
13268;DHT22;6702;47.068;15.458;2023-04-24T15:16:23;16.00;99.90
13268;DHT22;6702;47.068;15.458;2023-04-24T15:19:27;16.10;99.90
13268;DHT22;6702;47.068;15.458;2023-04-24T15:22:30;16.10;99.90
13268;DHT22;6702;47.068;15.458;2023-04-24T15:25:33;16.10;99.90
13268;DHT22;6702;47.068;15.458;2023-04-24T15:28:37;16.10;99.90
13268;DHT22;6702;47.068;15.458;2023-04-24T15:31:41;16.20;99.90
13268;DHT22;6702;47.068;15.458;2023-04-24T15:34:44;16.10;99.90
13268;DHT22;6702;47.068;15.458;2023-04-24T15:37:50;16.10;99.90
13268;DHT22;6702;47.068;15.458;2023-04-24T15:40:53;16.10;99.90
13268;DHT22;6702;47.068;15.458;2023-04-24T15:43:57;16.10;99.90
13268;DHT22;6702;47.068;15.458;2023-04-24T15:47:01;16.10;99.90
13268;DHT22;6702;47.068;15.458;2023-04-24T15:50:05;16.10;99.90
13268;DHT22;6702;47.068;15.458;2023-04-24T15:53:13;16.10;99.90
13268;DHT22;6702;47.068;15.458;2023-04-24T15:56:22;16.10;99.90
13268;DHT22;6702;47.068;15.458;2023-04-24T15:59:27;16.00;99.90
13268;DHT22;6702;47.068;15.458;2023-04-24T16:02:33;15.80;99.90
13268;DHT22;6702;47.068;15.458;2023-04-24T16:05:36;15.60;99.90
13268;DHT22;6702;47.068;15.458;2023-04-24T16:08:40;15.40;99.90
13268;DHT22;6702;47.068;15.458;2023-04-24T16:11:43;15.30;99.90
13268;DHT22;6702;47.068;15.458;2023-04-24T16:14:48;15.20;98.50
13268;DHT22;6702;47.068;15.458;2023-04-24T16:17:52;15.10;98.20
13268;DHT22;6702;47.068;15.458;2023-04-24T16:20:55;15.00;98.70
13268;DHT22;6702;47.068;15.458;2023-04-24T16:23:58;14.90;99.50
13268;DHT22;6702;47.068;15.458;2023-04-24T16:27:01;14.70;99.40
13268;DHT22;6702;47.068;15.458;2023-04-24T16:30:07;14.60;99.80
13268;DHT22;6702;47.068;15.458;2023-04-24T16:33:11;14.40;99.90
13268;DHT22;6702;47.068;15.458;2023-04-24T16:36:14;14.30;99.90
13268;DHT22;6702;47.068;15.458;2023-04-24T16:39:20;14.30;99.90
13268;DHT22;6702;47.068;15.458;2023-04-24T16:42:23;14.20;99.90
13268;DHT22;6702;47.068;15.458;2023-04-24T16:45:29;14.00;99.90
13268;DHT22;6702;47.068;15.458;2023-04-24T16:48:32;13.80;99.90
13268;DHT22;6702;47.068;15.458;2023-04-24T16:51:36;13.80;99.90
13268;DHT22;6702;47.068;15.458;2023-04-24T16:54:39;13.80;99.90
13268;DHT22;6702;47.068;15.458;2023-04-24T16:57:43;13.80;99.90
13268;DHT22;6702;47.068;15.458;2023-04-24T17:00:48;13.70;99.90
13268;DHT22;6702;47.068;15.458;2023-04-24T17:03:51;13.70;99.90
13268;DHT22;6702;47.068;15.458;2023-04-24T17:06:57;13.70;99.90
13268;DHT22;6702;47.068;15.458;2023-04-24T17:10:01;13.60;99.90
13268;DHT22;6702;47.068;15.458;2023-04-24T17:13:06;13.50;99.90
13268;DHT22;6702;47.068;15.458;2023-04-24T17:16:12;13.40;99.90
13268;DHT22;6702;47.068;15.458;2023-04-24T17:19:16;13.40;99.90
13268;DHT22;6702;47.068;15.458;2023-04-24T17:22:21;13.30;99.90
13268;DHT22;6702;47.068;15.458;2023-04-24T17:25:24;13.30;99.90
13268;DHT22;6702;47.068;15.458;2023-04-24T17:28:30;13.20;99.90
13268;DHT22;6702;47.068;15.458;2023-04-24T17:31:35;13.20;99.90
13268;DHT22;6702;47.068;15.458;2023-04-24T17:34:39;13.00;99.90
13268;DHT22;6702;47.068;15.458;2023-04-24T17:37:43;13.00;99.90
13268;DHT22;6702;47.068;15.458;2023-04-24T17:40:47;13.00;99.90
13268;DHT22;6702;47.068;15.458;2023-04-24T17:43:53;12.90;99.90
13268;DHT22;6702;47.068;15.458;2023-04-24T17:46:58;12.70;99.90
13268;DHT22;6702;47.068;15.458;2023-04-24T17:50:02;12.60;99.90
13268;DHT22;6702;47.068;15.458;2023-04-24T17:53:09;12.70;99.90
13268;DHT22;6702;47.068;15.458;2023-04-24T17:56:12;12.60;99.90
13268;DHT22;6702;47.068;15.458;2023-04-24T17:59:15;12.50;99.90
13268;DHT22;6702;47.068;15.458;2023-04-24T18:02:21;12.60;99.90
13268;DHT22;6702;47.068;15.458;2023-04-24T18:05:25;12.60;99.90
13268;DHT22;6702;47.068;15.458;2023-04-24T18:08:29;12.50;99.90
13268;DHT22;6702;47.068;15.458;2023-04-24T18:11:32;12.50;99.90
13268;DHT22;6702;47.068;15.458;2023-04-24T18:14:37;12.40;99.90
13268;DHT22;6702;47.068;15.458;2023-04-24T18:17:42;12.40;99.90
13268;DHT22;6702;47.068;15.458;2023-04-24T18:20:45;12.50;99.90
13268;DHT22;6702;47.068;15.458;2023-04-24T18:23:49;12.40;99.90
13268;DHT22;6702;47.068;15.458;2023-04-24T18:26:56;12.40;99.90
13268;DHT22;6702;47.068;15.458;2023-04-24T18:30:01;12.40;99.90
13268;DHT22;6702;47.068;15.458;2023-04-24T18:33:06;12.50;99.90
13268;DHT22;6702;47.068;15.458;2023-04-24T18:36:10;12.50;99.90
13268;DHT22;6702;47.068;15.458;2023-04-24T18:39:14;12.50;99.90
13268;DHT22;6702;47.068;15.458;2023-04-24T18:42:18;12.50;99.90
13268;DHT22;6702;47.068;15.458;2023-04-24T18:45:23;12.50;99.90
13268;DHT22;6702;47.068;15.458;2023-04-24T18:48:29;12.50;99.90
13268;DHT22;6702;47.068;15.458;2023-04-24T18:51:32;12.30;99.90
13268;DHT22;6702;47.068;15.458;2023-04-24T18:54:51;12.30;99.90
13268;DHT22;6702;47.068;15.458;2023-04-24T18:57:56;12.40;99.90
13268;DHT22;6702;47.068;15.458;2023-04-24T19:01:00;12.30;99.90
13268;DHT22;6702;47.068;15.458;2023-04-24T19:04:08;12.30;99.90
13268;DHT22;6702;47.068;15.458;2023-04-24T19:07:12;12.40;99.90
13268;DHT22;6702;47.068;15.458;2023-04-24T19:10:17;12.30;99.90
13268;DHT22;6702;47.068;15.458;2023-04-24T19:13:20;12.40;99.90
13268;DHT22;6702;47.068;15.458;2023-04-24T19:16:24;12.30;99.90
13268;DHT22;6702;47.068;15.458;2023-04-24T19:19:32;12.30;99.90
13268;DHT22;6702;47.068;15.458;2023-04-24T19:22:37;12.30;99.90